sensor_id;sensor_type;location;lat;lon;timestamp;temperature;humidity
4908;DHT22;2469;51.540;7.364;2022-08-21T00:00:29;24.70;78.80
4908;DHT22;2469;51.540;7.364;2022-08-21T00:03:02;24.70;78.40
4908;DHT22;2469;51.540;7.364;2022-08-21T00:05:35;24.60;78.40
4908;DHT22;2469;51.540;7.364;2022-08-21T00:08:03;24.60;78.30
4908;DHT22;2469;51.540;7.364;2022-08-21T00:10:32;24.70;79.10
4908;DHT22;2469;51.540;7.364;2022-08-21T00:13:00;24.40;77.10
4908;DHT22;2469;51.540;7.364;2022-08-21T00:15:30;24.40;78.70
4908;DHT22;2469;51.540;7.364;2022-08-21T00:18:00;24.20;77.50
4908;DHT22;2469;51.540;7.364;2022-08-21T00:20:28;24.30;79.30
4908;DHT22;2469;51.540;7.364;2022-08-21T00:22:56;24.30;78.70
4908;DHT22;2469;51.540;7.364;2022-08-21T00:25:25;24.30;79.20
4908;DHT22;2469;51.540;7.364;2022-08-21T00:27:54;24.30;78.90
4908;DHT22;2469;51.540;7.364;2022-08-21T00:30:24;24.30;79.30
4908;DHT22;2469;51.540;7.364;2022-08-21T00:32:54;24.20;79.00
4908;DHT22;2469;51.540;7.364;2022-08-21T00:35:26;24.20;79.10
4908;DHT22;2469;51.540;7.364;2022-08-21T00:37:55;24.20;79.50
4908;DHT22;2469;51.540;7.364;2022-08-21T00:40:26;24.10;78.60
4908;DHT22;2469;51.540;7.364;2022-08-21T00:42:54;23.90;79.10
4908;DHT22;2469;51.540;7.364;2022-08-21T00:45:23;23.90;79.40
4908;DHT22;2469;51.540;7.364;2022-08-21T00:47:52;23.90;79.20
4908;DHT22;2469;51.540;7.364;2022-08-21T00:50:23;23.90;79.40
4908;DHT22;2469;51.540;7.364;2022-08-21T00:52:53;23.90;79.30
4908;DHT22;2469;51.540;7.364;2022-08-21T00:55:22;23.90;80.30
4908;DHT22;2469;51.540;7.364;2022-08-21T00:57:54;23.80;80.10
4908;DHT22;2469;51.540;7.364;2022-08-21T01:00:25;23.90;80.60
4908;DHT22;2469;51.540;7.364;2022-08-21T01:02:55;23.90;80.90
4908;DHT22;2469;51.540;7.364;2022-08-21T01:05:25;23.80;79.60
4908;DHT22;2469;51.540;7.364;2022-08-21T01:07:54;23.50;80.60
4908;DHT22;2469;51.540;7.364;2022-08-21T01:10:24;23.50;81.60
4908;DHT22;2469;51.540;7.364;2022-08-21T01:12:53;23.50;82.00
4908;DHT22;2469;51.540;7.364;2022-08-21T01:15:25;23.60;82.20
4908;DHT22;2469;51.540;7.364;2022-08-21T01:17:55;23.70;82.60
4908;DHT22;2469;51.540;7.364;2022-08-21T01:20:24;23.80;83.40
4908;DHT22;2469;51.540;7.364;2022-08-21T01:23:00;23.80;82.40
4908;DHT22;2469;51.540;7.364;2022-08-21T01:25:28;23.80;81.90
4908;DHT22;2469;51.540;7.364;2022-08-21T01:27:57;23.70;81.70
4908;DHT22;2469;51.540;7.364;2022-08-21T01:30:28;23.70;82.40
4908;DHT22;2469;51.540;7.364;2022-08-21T01:32:56;23.70;82.10
4908;DHT22;2469;51.540;7.364;2022-08-21T01:35:25;23.60;82.30
4908;DHT22;2469;51.540;7.364;2022-08-21T01:37:53;23.60;82.60
4908;DHT22;2469;51.540;7.364;2022-08-21T01:40:22;23.70;82.80
4908;DHT22;2469;51.540;7.364;2022-08-21T01:42:51;23.70;82.60
4908;DHT22;2469;51.540;7.364;2022-08-21T01:45:20;23.50;82.50
4908;DHT22;2469;51.540;7.364;2022-08-21T01:47:48;23.40;82.70
4908;DHT22;2469;51.540;7.364;2022-08-21T01:50:18;23.30;83.40
4908;DHT22;2469;51.540;7.364;2022-08-21T01:52:47;23.30;83.70
4908;DHT22;2469;51.540;7.364;2022-08-21T01:55:16;23.40;83.50
4908;DHT22;2469;51.540;7.364;2022-08-21T01:57:46;23.30;82.90
4908;DHT22;2469;51.540;7.364;2022-08-21T02:00:18;23.10;83.50
4908;DHT22;2469;51.540;7.364;2022-08-21T02:02:46;22.90;84.30
4908;DHT22;2469;51.540;7.364;2022-08-21T02:05:14;22.80;85.20
4908;DHT22;2469;51.540;7.364;2022-08-21T02:07:47;22.90;85.30
4908;DHT22;2469;51.540;7.364;2022-08-21T02:10:18;22.90;84.80
4908;DHT22;2469;51.540;7.364;2022-08-21T02:12:48;23.00;84.90
4908;DHT22;2469;51.540;7.364;2022-08-21T02:15:16;23.00;85.40
4908;DHT22;2469;51.540;7.364;2022-08-21T02:17:47;23.10;85.70
4908;DHT22;2469;51.540;7.364;2022-08-21T02:20:17;23.10;85.60
4908;DHT22;2469;51.540;7.364;2022-08-21T02:22:45;23.30;85.60
4908;DHT22;2469;51.540;7.364;2022-08-21T02:25:13;23.30;84.50
4908;DHT22;2469;51.540;7.364;2022-08-21T02:27:43;23.30;85.20
4908;DHT22;2469;51.540;7.364;2022-08-21T02:30:16;23.40;85.10
4908;DHT22;2469;51.540;7.364;2022-08-21T02:32:44;23.40;84.90
4908;DHT22;2469;51.540;7.364;2022-08-21T02:35:12;23.30;84.10
4908;DHT22;2469;51.540;7.364;2022-08-21T02:37:45;23.20;84.00
4908;DHT22;2469;51.540;7.364;2022-08-21T02:40:15;23.20;83.50
4908;DHT22;2469;51.540;7.364;2022-08-21T02:42:44;23.10;82.40
4908;DHT22;2469;51.540;7.364;2022-08-21T02:45:14;23.00;83.30
4908;DHT22;2469;51.540;7.364;2022-08-21T02:47:47;23.00;84.10
4908;DHT22;2469;51.540;7.364;2022-08-21T02:50:19;23.00;83.80
4908;DHT22;2469;51.540;7.364;2022-08-21T02:52:47;23.00;84.40
4908;DHT22;2469;51.540;7.364;2022-08-21T02:55:21;23.00;83.50
4908;DHT22;2469;51.540;7.364;2022-08-21T02:57:49;22.80;82.90
4908;DHT22;2469;51.540;7.364;2022-08-21T03:00:18;22.70;83.10
4908;DHT22;2469;51.540;7.364;2022-08-21T03:02:47;22.60;83.40
4908;DHT22;2469;51.540;7.364;2022-08-21T03:05:16;22.50;83.20
4908;DHT22;2469;51.540;7.364;2022-08-21T03:07:45;22.50;84.90
4908;DHT22;2469;51.540;7.364;2022-08-21T03:10:15;22.50;84.90
4908;DHT22;2469;51.540;7.364;2022-08-21T03:12:43;22.60;85.90
4908;DHT22;2469;51.540;7.364;2022-08-21T03:15:12;22.70;86.10
4908;DHT22;2469;51.540;7.364;2022-08-21T03:17:42;22.70;85.40
4908;DHT22;2469;51.540;7.364;2022-08-21T03:20:10;22.70;85.10
4908;DHT22;2469;51.540;7.364;2022-08-21T03:22:39;22.60;83.80
4908;DHT22;2469;51.540;7.364;2022-08-21T03:25:11;22.50;83.90
4908;DHT22;2469;51.540;7.364;2022-08-21T03:27:39;22.50;85.10
4908;DHT22;2469;51.540;7.364;2022-08-21T03:30:10;22.60;85.60
4908;DHT22;2469;51.540;7.364;2022-08-21T03:32:39;22.50;85.60
4908;DHT22;2469;51.540;7.364;2022-08-21T03:35:09;22.50;84.40
4908;DHT22;2469;51.540;7.364;2022-08-21T03:37:37;22.40;84.30
4908;DHT22;2469;51.540;7.364;2022-08-21T03:40:08;22.30;84.00
4908;DHT22;2469;51.540;7.364;2022-08-21T03:42:36;22.10;83.60
4908;DHT22;2469;51.540;7.364;2022-08-21T03:45:05;22.10;84.60
4908;DHT22;2469;51.540;7.364;2022-08-21T03:47:33;22.10;84.70
4908;DHT22;2469;51.540;7.364;2022-08-21T03:50:02;22.10;84.60
4908;DHT22;2469;51.540;7.364;2022-08-21T03:52:32;22.10;84.20
4908;DHT22;2469;51.540;7.364;2022-08-21T03:55:00;22.00;83.50
4908;DHT22;2469;51.540;7.364;2022-08-21T03:57:28;22.00;85.20
4908;DHT22;2469;51.540;7.364;2022-08-21T03:59:56;21.90;84.90
4908;DHT22;2469;51.540;7.364;2022-08-21T04:02:24;21.90;84.00
4908;DHT22;2469;51.540;7.364;2022-08-21T04:04:52;21.90;84.40
4908;DHT22;2469;51.540;7.364;2022-08-21T04:07:19;21.90;86.00
4908;DHT22;2469;51.540;7.364;2022-08-21T04:09:49;21.90;84.60
4908;DHT22;2469;51.540;7.364;2022-08-21T04:12:17;21.90;84.70
4908;DHT22;2469;51.540;7.364;2022-08-21T04:14:45;21.80;83.90
4908;DHT22;2469;51.540;7.364;2022-08-21T04:17:13;21.80;85.10
4908;DHT22;2469;51.540;7.364;2022-08-21T04:19:41;21.70;84.90
4908;DHT22;2469;51.540;7.364;2022-08-21T04:22:09;21.60;84.40
4908;DHT22;2469;51.540;7.364;2022-08-21T04:24:37;21.60;84.40
4908;DHT22;2469;51.540;7.364;2022-08-21T04:27:07;21.50;85.00
4908;DHT22;2469;51.540;7.364;2022-08-21T04:29:35;21.50;84.50
4908;DHT22;2469;51.540;7.364;2022-08-21T04:32:06;21.40;85.00
4908;DHT22;2469;51.540;7.364;2022-08-21T04:34:34;21.40;84.80
4908;DHT22;2469;51.540;7.364;2022-08-21T04:37:03;21.40;85.20
4908;DHT22;2469;51.540;7.364;2022-08-21T04:39:31;21.50;86.30
4908;DHT22;2469;51.540;7.364;2022-08-21T04:41:59;21.40;85.30
4908;DHT22;2469;51.540;7.364;2022-08-21T04:44:28;21.50;86.50
4908;DHT22;2469;51.540;7.364;2022-08-21T04:46:56;21.40;84.80
4908;DHT22;2469;51.540;7.364;2022-08-21T04:49:24;21.40;85.70
4908;DHT22;2469;51.540;7.364;2022-08-21T04:51:52;21.40;84.80
4908;DHT22;2469;51.540;7.364;2022-08-21T04:54:22;21.30;86.20
4908;DHT22;2469;51.540;7.364;2022-08-21T04:56:53;21.10;85.40
4908;DHT22;2469;51.540;7.364;2022-08-21T04:59:28;21.10;86.40
4908;DHT22;2469;51.540;7.364;2022-08-21T05:01:57;21.00;87.00
4908;DHT22;2469;51.540;7.364;2022-08-21T05:04:28;21.10;87.10
4908;DHT22;2469;51.540;7.364;2022-08-21T05:06:59;21.10;87.50
4908;DHT22;2469;51.540;7.364;2022-08-21T05:09:29;21.00;87.90
4908;DHT22;2469;51.540;7.364;2022-08-21T05:11:57;20.80;88.40
4908;DHT22;2469;51.540;7.364;2022-08-21T05:14:26;20.80;89.30
4908;DHT22;2469;51.540;7.364;2022-08-21T05:16:55;20.90;90.10
4908;DHT22;2469;51.540;7.364;2022-08-21T05:19:23;21.00;90.20
4908;DHT22;2469;51.540;7.364;2022-08-21T05:21:52;21.10;90.50
4908;DHT22;2469;51.540;7.364;2022-08-21T05:24:20;21.30;90.70
4908;DHT22;2469;51.540;7.364;2022-08-21T05:26:48;21.60;90.50
4908;DHT22;2469;51.540;7.364;2022-08-21T05:29:16;21.80;90.30
4908;DHT22;2469;51.540;7.364;2022-08-21T05:31:46;22.10;90.00
4908;DHT22;2469;51.540;7.364;2022-08-21T05:34:19;22.40;89.10
4908;DHT22;2469;51.540;7.364;2022-08-21T05:36:48;22.70;88.20
4908;DHT22;2469;51.540;7.364;2022-08-21T05:39:16;22.90;87.50
4908;DHT22;2469;51.540;7.364;2022-08-21T05:41:44;23.00;86.70
4908;DHT22;2469;51.540;7.364;2022-08-21T05:44:13;23.20;86.20
4908;DHT22;2469;51.540;7.364;2022-08-21T05:46:41;23.40;85.20
4908;DHT22;2469;51.540;7.364;2022-08-21T05:49:10;23.50;85.80
4908;DHT22;2469;51.540;7.364;2022-08-21T05:51:41;23.50;85.20
4908;DHT22;2469;51.540;7.364;2022-08-21T05:54:09;23.40;85.30
4908;DHT22;2469;51.540;7.364;2022-08-21T05:56:37;23.30;85.70
4908;DHT22;2469;51.540;7.364;2022-08-21T05:59:05;23.20;86.00
4908;DHT22;2469;51.540;7.364;2022-08-21T06:01:34;23.20;86.20
4908;DHT22;2469;51.540;7.364;2022-08-21T06:04:03;23.10;86.80
4908;DHT22;2469;51.540;7.364;2022-08-21T06:06:31;23.10;87.30
4908;DHT22;2469;51.540;7.364;2022-08-21T06:09:00;23.10;87.60
4908;DHT22;2469;51.540;7.364;2022-08-21T06:11:29;23.00;87.80
4908;DHT22;2469;51.540;7.364;2022-08-21T06:13:58;23.00;87.20
4908;DHT22;2469;51.540;7.364;2022-08-21T06:16:26;22.90;87.80
4908;DHT22;2469;51.540;7.364;2022-08-21T06:18:54;22.80;88.60
4908;DHT22;2469;51.540;7.364;2022-08-21T06:21:28;22.80;88.00
4908;DHT22;2469;51.540;7.364;2022-08-21T06:23:56;22.80;88.30
4908;DHT22;2469;51.540;7.364;2022-08-21T06:26:25;22.90;88.10
4908;DHT22;2469;51.540;7.364;2022-08-21T06:28:55;22.90;88.00
4908;DHT22;2469;51.540;7.364;2022-08-21T06:31:24;23.00;87.80
4908;DHT22;2469;51.540;7.364;2022-08-21T06:33:53;23.10;88.00
4908;DHT22;2469;51.540;7.364;2022-08-21T06:36:21;23.10;87.50
4908;DHT22;2469;51.540;7.364;2022-08-21T06:38:49;23.20;87.50
4908;DHT22;2469;51.540;7.364;2022-08-21T06:41:18;23.30;87.10
4908;DHT22;2469;51.540;7.364;2022-08-21T06:43:53;23.40;87.00
4908;DHT22;2469;51.540;7.364;2022-08-21T06:46:22;23.50;86.90
4908;DHT22;2469;51.540;7.364;2022-08-21T06:48:50;23.50;86.20
4908;DHT22;2469;51.540;7.364;2022-08-21T06:51:18;23.60;86.10
4908;DHT22;2469;51.540;7.364;2022-08-21T06:53:46;23.60;85.60
4908;DHT22;2469;51.540;7.364;2022-08-21T06:56:14;23.70;85.60
4908;DHT22;2469;51.540;7.364;2022-08-21T06:58:42;23.80;85.80
4908;DHT22;2469;51.540;7.364;2022-08-21T07:01:11;23.90;85.00
4908;DHT22;2469;51.540;7.364;2022-08-21T07:03:42;23.90;84.60
4908;DHT22;2469;51.540;7.364;2022-08-21T07:06:11;24.00;84.50
4908;DHT22;2469;51.540;7.364;2022-08-21T07:08:39;24.10;85.60
4908;DHT22;2469;51.540;7.364;2022-08-21T07:11:11;24.00;84.00
4908;DHT22;2469;51.540;7.364;2022-08-21T07:13:39;24.10;84.10
4908;DHT22;2469;51.540;7.364;2022-08-21T07:16:07;24.10;83.90
4908;DHT22;2469;51.540;7.364;2022-08-21T07:18:37;24.10;83.90
4908;DHT22;2469;51.540;7.364;2022-08-21T07:21:06;24.20;83.60
4908;DHT22;2469;51.540;7.364;2022-08-21T07:23:37;24.20;83.40
4908;DHT22;2469;51.540;7.364;2022-08-21T07:26:05;24.20;83.10
4908;DHT22;2469;51.540;7.364;2022-08-21T07:28:34;24.30;83.00
4908;DHT22;2469;51.540;7.364;2022-08-21T07:31:02;24.30;82.90
4908;DHT22;2469;51.540;7.364;2022-08-21T07:33:32;24.40;82.80
4908;DHT22;2469;51.540;7.364;2022-08-21T07:36:02;24.40;82.80
4908;DHT22;2469;51.540;7.364;2022-08-21T07:38:30;24.40;83.40
4908;DHT22;2469;51.540;7.364;2022-08-21T07:41:00;24.40;82.80
4908;DHT22;2469;51.540;7.364;2022-08-21T07:43:28;24.20;83.60
4908;DHT22;2469;51.540;7.364;2022-08-21T07:45:57;24.10;83.80
4908;DHT22;2469;51.540;7.364;2022-08-21T07:48:25;23.80;84.40
4908;DHT22;2469;51.540;7.364;2022-08-21T07:50:53;23.60;85.30
4908;DHT22;2469;51.540;7.364;2022-08-21T07:53:23;23.50;85.50
4908;DHT22;2469;51.540;7.364;2022-08-21T07:55:51;23.40;85.80
4908;DHT22;2469;51.540;7.364;2022-08-21T07:58:19;23.40;86.00
4908;DHT22;2469;51.540;7.364;2022-08-21T08:00:47;23.30;86.10
4908;DHT22;2469;51.540;7.364;2022-08-21T08:03:15;23.30;86.10
4908;DHT22;2469;51.540;7.364;2022-08-21T08:05:55;23.30;85.90
4908;DHT22;2469;51.540;7.364;2022-08-21T08:08:24;23.40;85.80
4908;DHT22;2469;51.540;7.364;2022-08-21T08:10:53;23.40;85.70
4908;DHT22;2469;51.540;7.364;2022-08-21T08:13:21;23.40;85.00
4908;DHT22;2469;51.540;7.364;2022-08-21T08:15:49;23.30;84.40
4908;DHT22;2469;51.540;7.364;2022-08-21T08:18:18;23.30;84.30
4908;DHT22;2469;51.540;7.364;2022-08-21T08:20:45;23.40;84.90
4908;DHT22;2469;51.540;7.364;2022-08-21T08:23:14;23.50;89.70
4908;DHT22;2469;51.540;7.364;2022-08-21T08:25:44;23.60;86.40
4908;DHT22;2469;51.540;7.364;2022-08-21T08:28:11;23.80;84.70
4908;DHT22;2469;51.540;7.364;2022-08-21T08:30:43;23.80;84.20
4908;DHT22;2469;51.540;7.364;2022-08-21T08:33:12;23.80;84.10
4908;DHT22;2469;51.540;7.364;2022-08-21T08:35:40;23.90;84.00
4908;DHT22;2469;51.540;7.364;2022-08-21T08:38:08;24.00;83.00
4908;DHT22;2469;51.540;7.364;2022-08-21T08:40:41;23.80;80.90
4908;DHT22;2469;51.540;7.364;2022-08-21T08:43:13;23.80;81.10
4908;DHT22;2469;51.540;7.364;2022-08-21T08:45:46;23.80;79.10
4908;DHT22;2469;51.540;7.364;2022-08-21T08:48:21;23.80;78.70
4908;DHT22;2469;51.540;7.364;2022-08-21T08:51:00;23.90;78.50
4908;DHT22;2469;51.540;7.364;2022-08-21T08:53:32;23.90;77.60
4908;DHT22;2469;51.540;7.364;2022-08-21T08:56:01;23.80;77.50
4908;DHT22;2469;51.540;7.364;2022-08-21T08:58:34;23.90;77.10
4908;DHT22;2469;51.540;7.364;2022-08-21T09:01:18;23.90;77.20
4908;DHT22;2469;51.540;7.364;2022-08-21T09:03:47;24.00;77.30
4908;DHT22;2469;51.540;7.364;2022-08-21T09:06:28;24.10;77.00
4908;DHT22;2469;51.540;7.364;2022-08-21T09:09:06;24.00;76.40
4908;DHT22;2469;51.540;7.364;2022-08-21T09:11:44;24.00;76.50
4908;DHT22;2469;51.540;7.364;2022-08-21T09:14:20;24.00;76.90
4908;DHT22;2469;51.540;7.364;2022-08-21T09:16:58;24.00;77.70
4908;DHT22;2469;51.540;7.364;2022-08-21T09:19:47;24.00;76.30
4908;DHT22;2469;51.540;7.364;2022-08-21T09:22:26;24.10;77.30
4908;DHT22;2469;51.540;7.364;2022-08-21T09:25:03;24.20;76.60
4908;DHT22;2469;51.540;7.364;2022-08-21T09:27:34;24.20;76.50
4908;DHT22;2469;51.540;7.364;2022-08-21T09:30:06;24.30;76.60
4908;DHT22;2469;51.540;7.364;2022-08-21T09:32:36;24.30;76.90
4908;DHT22;2469;51.540;7.364;2022-08-21T09:35:06;24.40;77.10
4908;DHT22;2469;51.540;7.364;2022-08-21T09:37:46;24.50;77.00
4908;DHT22;2469;51.540;7.364;2022-08-21T09:40:31;24.50;76.90
4908;DHT22;2469;51.540;7.364;2022-08-21T09:43:02;24.50;75.70
4908;DHT22;2469;51.540;7.364;2022-08-21T09:45:33;24.50;76.20
4908;DHT22;2469;51.540;7.364;2022-08-21T09:48:09;24.50;75.50
4908;DHT22;2469;51.540;7.364;2022-08-21T09:50:37;24.60;75.40
4908;DHT22;2469;51.540;7.364;2022-08-21T09:53:15;24.70;75.40
4908;DHT22;2469;51.540;7.364;2022-08-21T09:55:49;24.90;75.20
4908;DHT22;2469;51.540;7.364;2022-08-21T09:58:37;25.00;75.00
4908;DHT22;2469;51.540;7.364;2022-08-21T10:01:11;25.10;74.30
4908;DHT22;2469;51.540;7.364;2022-08-21T10:03:40;25.20;75.00
4908;DHT22;2469;51.540;7.364;2022-08-21T10:06:09;25.40;75.10
4908;DHT22;2469;51.540;7.364;2022-08-21T10:08:41;25.50;74.20
4908;DHT22;2469;51.540;7.364;2022-08-21T10:11:11;25.50;73.70
4908;DHT22;2469;51.540;7.364;2022-08-21T10:13:49;25.70;74.10
4908;DHT22;2469;51.540;7.364;2022-08-21T10:16:38;25.70;73.20
4908;DHT22;2469;51.540;7.364;2022-08-21T10:19:18;25.70;74.20
4908;DHT22;2469;51.540;7.364;2022-08-21T10:21:59;25.70;74.70
4908;DHT22;2469;51.540;7.364;2022-08-21T10:24:31;25.80;73.70
4908;DHT22;2469;51.540;7.364;2022-08-21T10:27:10;25.80;73.30
4908;DHT22;2469;51.540;7.364;2022-08-21T10:29:49;25.80;73.80
4908;DHT22;2469;51.540;7.364;2022-08-21T10:35:24;25.80;73.50
4908;DHT22;2469;51.540;7.364;2022-08-21T10:38:31;25.80;72.50
4908;DHT22;2469;51.540;7.364;2022-08-21T10:41:28;25.80;69.80
4908;DHT22;2469;51.540;7.364;2022-08-21T10:44:05;25.80;72.70
4908;DHT22;2469;51.540;7.364;2022-08-21T10:46:42;26.00;73.80
4908;DHT22;2469;51.540;7.364;2022-08-21T10:49:22;26.00;73.10
4908;DHT22;2469;51.540;7.364;2022-08-21T10:52:00;26.10;72.50
4908;DHT22;2469;51.540;7.364;2022-08-21T10:54:34;26.20;73.40
4908;DHT22;2469;51.540;7.364;2022-08-21T10:57:09;26.30;73.60
4908;DHT22;2469;51.540;7.364;2022-08-21T10:59:47;26.30;72.80
4908;DHT22;2469;51.540;7.364;2022-08-21T11:02:19;26.40;70.20
4908;DHT22;2469;51.540;7.364;2022-08-21T11:04:54;26.60;73.00
4908;DHT22;2469;51.540;7.364;2022-08-21T11:07:30;26.70;72.10
4908;DHT22;2469;51.540;7.364;2022-08-21T11:10:03;26.60;67.30
4908;DHT22;2469;51.540;7.364;2022-08-21T11:12:38;26.70;71.30
4908;DHT22;2469;51.540;7.364;2022-08-21T11:15:19;26.70;72.30
4908;DHT22;2469;51.540;7.364;2022-08-21T11:18:01;26.80;69.40
4908;DHT22;2469;51.540;7.364;2022-08-21T11:20:38;26.70;72.30
4908;DHT22;2469;51.540;7.364;2022-08-21T11:23:13;26.80;72.60
4908;DHT22;2469;51.540;7.364;2022-08-21T11:25:46;26.90;69.90
4908;DHT22;2469;51.540;7.364;2022-08-21T11:28:23;26.90;69.10
4908;DHT22;2469;51.540;7.364;2022-08-21T11:31:01;27.00;71.40
4908;DHT22;2469;51.540;7.364;2022-08-21T11:33:47;27.00;71.00
4908;DHT22;2469;51.540;7.364;2022-08-21T11:36:25;27.00;71.50
4908;DHT22;2469;51.540;7.364;2022-08-21T11:39:02;27.20;71.80
4908;DHT22;2469;51.540;7.364;2022-08-21T11:41:37;27.20;66.60
4908;DHT22;2469;51.540;7.364;2022-08-21T11:44:13;27.20;71.10
4908;DHT22;2469;51.540;7.364;2022-08-21T11:46:49;27.20;67.70
4908;DHT22;2469;51.540;7.364;2022-08-21T11:49:38;27.20;69.50
4908;DHT22;2469;51.540;7.364;2022-08-21T11:52:16;27.30;67.50
4908;DHT22;2469;51.540;7.364;2022-08-21T11:54:49;27.30;70.70
4908;DHT22;2469;51.540;7.364;2022-08-21T11:57:24;27.30;71.00
4908;DHT22;2469;51.540;7.364;2022-08-21T11:59:55;27.40;71.00
4908;DHT22;2469;51.540;7.364;2022-08-21T12:02:30;27.50;70.90
4908;DHT22;2469;51.540;7.364;2022-08-21T12:05:02;27.60;69.60
4908;DHT22;2469;51.540;7.364;2022-08-21T12:07:38;27.60;70.70
4908;DHT22;2469;51.540;7.364;2022-08-21T12:10:09;27.50;70.20
4908;DHT22;2469;51.540;7.364;2022-08-21T12:12:40;27.60;70.40
4908;DHT22;2469;51.540;7.364;2022-08-21T12:15:25;27.60;65.90
4908;DHT22;2469;51.540;7.364;2022-08-21T12:17:59;27.60;69.40
4908;DHT22;2469;51.540;7.364;2022-08-21T12:20:41;27.50;66.90
4908;DHT22;2469;51.540;7.364;2022-08-21T12:23:29;27.60;69.60
4908;DHT22;2469;51.540;7.364;2022-08-21T12:26:20;27.60;67.30
4908;DHT22;2469;51.540;7.364;2022-08-21T12:28:50;27.60;70.20
4908;DHT22;2469;51.540;7.364;2022-08-21T12:31:20;27.80;70.00
4908;DHT22;2469;51.540;7.364;2022-08-21T12:33:56;27.90;68.70
4908;DHT22;2469;51.540;7.364;2022-08-21T12:36:38;27.90;69.90
4908;DHT22;2469;51.540;7.364;2022-08-21T12:39:14;27.90;68.20
4908;DHT22;2469;51.540;7.364;2022-08-21T12:41:48;28.10;69.40
4908;DHT22;2469;51.540;7.364;2022-08-21T12:44:22;28.10;66.40
4908;DHT22;2469;51.540;7.364;2022-08-21T12:46:59;28.00;69.20
4908;DHT22;2469;51.540;7.364;2022-08-21T12:49:33;28.10;69.10
4908;DHT22;2469;51.540;7.364;2022-08-21T12:52:09;28.00;65.60
4908;DHT22;2469;51.540;7.364;2022-08-21T12:54:41;28.10;68.70
4908;DHT22;2469;51.540;7.364;2022-08-21T12:57:19;28.10;63.20
4908;DHT22;2469;51.540;7.364;2022-08-21T12:59:52;28.10;65.60
4908;DHT22;2469;51.540;7.364;2022-08-21T13:02:23;28.10;68.60
4908;DHT22;2469;51.540;7.364;2022-08-21T13:04:52;28.00;65.30
4908;DHT22;2469;51.540;7.364;2022-08-21T13:07:26;28.00;68.00
4908;DHT22;2469;51.540;7.364;2022-08-21T13:09:57;28.10;66.70
4908;DHT22;2469;51.540;7.364;2022-08-21T13:12:27;28.00;64.80
4908;DHT22;2469;51.540;7.364;2022-08-21T13:15:00;28.10;68.90
4908;DHT22;2469;51.540;7.364;2022-08-21T13:17:36;28.20;68.50
4908;DHT22;2469;51.540;7.364;2022-08-21T13:20:09;28.30;66.90
4908;DHT22;2469;51.540;7.364;2022-08-21T13:22:41;28.30;66.80
4908;DHT22;2469;51.540;7.364;2022-08-21T13:25:12;28.50;68.20
4908;DHT22;2469;51.540;7.364;2022-08-21T13:27:42;28.50;64.80
4908;DHT22;2469;51.540;7.364;2022-08-21T13:30:13;28.50;67.40
4908;DHT22;2469;51.540;7.364;2022-08-21T13:32:44;28.40;66.00
4908;DHT22;2469;51.540;7.364;2022-08-21T13:35:16;28.40;67.30
4908;DHT22;2469;51.540;7.364;2022-08-21T13:37:48;28.40;66.20
4908;DHT22;2469;51.540;7.364;2022-08-21T13:40:24;28.40;66.50
4908;DHT22;2469;51.540;7.364;2022-08-21T13:42:52;28.40;67.30
4908;DHT22;2469;51.540;7.364;2022-08-21T13:45:25;28.50;67.40
4908;DHT22;2469;51.540;7.364;2022-08-21T13:47:54;28.70;67.70
4908;DHT22;2469;51.540;7.364;2022-08-21T13:50:24;28.70;63.30
4908;DHT22;2469;51.540;7.364;2022-08-21T13:53:00;28.70;67.10
4908;DHT22;2469;51.540;7.364;2022-08-21T13:55:41;28.90;67.80
4908;DHT22;2469;51.540;7.364;2022-08-21T13:58:10;28.90;64.90
4908;DHT22;2469;51.540;7.364;2022-08-21T14:00:45;29.00;66.20
4908;DHT22;2469;51.540;7.364;2022-08-21T14:03:23;28.90;65.10
4908;DHT22;2469;51.540;7.364;2022-08-21T14:05:53;28.80;64.30
4908;DHT22;2469;51.540;7.364;2022-08-21T14:08:26;28.70;64.50
4908;DHT22;2469;51.540;7.364;2022-08-21T14:10:58;28.70;62.40
4908;DHT22;2469;51.540;7.364;2022-08-21T14:13:34;28.60;65.10
4908;DHT22;2469;51.540;7.364;2022-08-21T14:16:17;28.60;62.00
4908;DHT22;2469;51.540;7.364;2022-08-21T14:19:07;28.70;64.80
4908;DHT22;2469;51.540;7.364;2022-08-21T14:21:38;28.70;63.80
4908;DHT22;2469;51.540;7.364;2022-08-21T14:24:10;28.80;64.40
4908;DHT22;2469;51.540;7.364;2022-08-21T14:26:46;28.70;64.80
4908;DHT22;2469;51.540;7.364;2022-08-21T14:29:18;28.80;66.30
4908;DHT22;2469;51.540;7.364;2022-08-21T14:31:50;28.70;64.20
4908;DHT22;2469;51.540;7.364;2022-08-21T14:34:19;28.80;61.30
4908;DHT22;2469;51.540;7.364;2022-08-21T14:36:48;28.80;65.90
4908;DHT22;2469;51.540;7.364;2022-08-21T14:39:16;28.80;65.20
4908;DHT22;2469;51.540;7.364;2022-08-21T14:41:46;28.90;66.30
4908;DHT22;2469;51.540;7.364;2022-08-21T14:44:16;28.90;66.40
4908;DHT22;2469;51.540;7.364;2022-08-21T14:46:45;29.00;66.20
4908;DHT22;2469;51.540;7.364;2022-08-21T14:49:24;29.00;66.30
4908;DHT22;2469;51.540;7.364;2022-08-21T14:51:54;29.00;66.90
4908;DHT22;2469;51.540;7.364;2022-08-21T14:54:24;29.00;65.90
4908;DHT22;2469;51.540;7.364;2022-08-21T14:57:01;29.00;66.10
4908;DHT22;2469;51.540;7.364;2022-08-21T14:59:31;29.00;66.30
4908;DHT22;2469;51.540;7.364;2022-08-21T15:02:00;28.90;63.60
4908;DHT22;2469;51.540;7.364;2022-08-21T15:04:30;28.90;66.10
4908;DHT22;2469;51.540;7.364;2022-08-21T15:06:58;28.90;66.40
4908;DHT22;2469;51.540;7.364;2022-08-21T15:09:26;28.90;65.80
4908;DHT22;2469;51.540;7.364;2022-08-21T15:11:57;28.90;66.50
4908;DHT22;2469;51.540;7.364;2022-08-21T15:14:29;29.00;66.20
4908;DHT22;2469;51.540;7.364;2022-08-21T15:16:58;29.00;66.30
4908;DHT22;2469;51.540;7.364;2022-08-21T15:19:26;29.00;66.50
4908;DHT22;2469;51.540;7.364;2022-08-21T15:21:56;29.10;66.20
4908;DHT22;2469;51.540;7.364;2022-08-21T15:24:24;29.10;65.80
4908;DHT22;2469;51.540;7.364;2022-08-21T15:26:53;29.10;65.80
4908;DHT22;2469;51.540;7.364;2022-08-21T15:29:21;29.10;64.70
4908;DHT22;2469;51.540;7.364;2022-08-21T15:31:58;29.10;65.30
4908;DHT22;2469;51.540;7.364;2022-08-21T15:34:28;29.10;64.40
4908;DHT22;2469;51.540;7.364;2022-08-21T15:36:57;29.10;64.70
4908;DHT22;2469;51.540;7.364;2022-08-21T15:39:26;29.10;63.00
4908;DHT22;2469;51.540;7.364;2022-08-21T15:41:57;29.00;64.30
4908;DHT22;2469;51.540;7.364;2022-08-21T15:44:37;29.00;65.60
4908;DHT22;2469;51.540;7.364;2022-08-21T15:47:11;28.90;63.50
4908;DHT22;2469;51.540;7.364;2022-08-21T15:49:40;29.00;65.10
4908;DHT22;2469;51.540;7.364;2022-08-21T15:52:11;29.00;62.50
4908;DHT22;2469;51.540;7.364;2022-08-21T15:54:39;29.10;64.90
4908;DHT22;2469;51.540;7.364;2022-08-21T15:57:09;29.10;65.00
4908;DHT22;2469;51.540;7.364;2022-08-21T15:59:40;29.10;65.40
4908;DHT22;2469;51.540;7.364;2022-08-21T16:02:18;29.10;65.00
4908;DHT22;2469;51.540;7.364;2022-08-21T16:04:47;29.20;65.80
4908;DHT22;2469;51.540;7.364;2022-08-21T16:07:15;29.10;65.20
4908;DHT22;2469;51.540;7.364;2022-08-21T16:09:43;29.10;65.90
4908;DHT22;2469;51.540;7.364;2022-08-21T16:12:17;29.20;65.90
4908;DHT22;2469;51.540;7.364;2022-08-21T16:14:47;29.30;65.60
4908;DHT22;2469;51.540;7.364;2022-08-21T16:17:17;29.40;65.00
4908;DHT22;2469;51.540;7.364;2022-08-21T16:19:45;29.30;65.50
4908;DHT22;2469;51.540;7.364;2022-08-21T16:22:13;29.30;61.40
4908;DHT22;2469;51.540;7.364;2022-08-21T16:24:41;29.20;64.10
4908;DHT22;2469;51.540;7.364;2022-08-21T16:27:10;29.20;65.30
4908;DHT22;2469;51.540;7.364;2022-08-21T16:29:40;29.10;62.20
4908;DHT22;2469;51.540;7.364;2022-08-21T16:32:08;29.00;65.70